TABOR32 KNKX-EGUL
Flight info
| Callsign | TABOR32 |
|---|---|
| Flight time | N/A |
| Altitude | 41000 |
| Route | LAKEE3 TRM J236 TBC J128 HBU J10 LBF DCT YANKI J114 GEP J21 DLH Q924 MECNU DCT 51N083W 54N075W 56N066W/M079F410 58N056W 59N046W 59N035W 58N024W DCT BILTO/N0454F410 DCT PEVAN DCT TADEX DCT SOSIM L15 HON P155 SIVDA |
| Aircraft | F35/M-SDE3RV/LB1 |
Departure
| Time | 2026-04-25 08:42 |
|---|---|
| Airport | Miramar Marine Corps Air Station - Mitscher Field (KNKX) |
Arrival
| Time | N/A |
|---|---|
| Airport | RAF Lakenheath (EGUL) |
| Time | Latitude | Longitude | Altitude | Speed | Heading |
|---|---|---|---|---|---|
| 2026-04-25 08:32 | 32.87365 | -117.12761 | 450 ft | 0 kts | 165° |
| 2026-04-25 08:39 | 32.87353 | -117.12757 | 450 ft | 9 kts | 165° |
| 2026-04-25 08:39 | 32.87280 | -117.12760 | 453 ft | 13 kts | 216° |
| 2026-04-25 08:39 | 32.87249 | -117.12834 | 452 ft | 0 kts | 255° |
| 2026-04-25 08:41 | 32.87172 | -117.13181 | 450 ft | 133 kts | 255° |
| 2026-04-25 08:41 | 32.86802 | -117.14802 | 585 ft | 271 kts | 255° |
| 2026-04-25 08:42 | 32.86215 | -117.17535 | 1131 ft | 389 kts | 264° |
| 2026-04-25 08:42 | 32.87054 | -117.20727 | 3098 ft | 445 kts | 317° |
| 2026-04-25 08:42 | 32.89975 | -117.21085 | 5069 ft | 462 kts | 22° |
| 2026-04-25 08:42 | 32.93088 | -117.19457 | 7110 ft | 510 kts | 22° |
| 2026-04-25 08:43 | 32.96191 | -117.17813 | 9160 ft | 465 kts | 21° |
| 2026-04-25 08:43 | 32.99022 | -117.16300 | 11013 ft | 427 kts | 20° |
| 2026-04-25 08:43 | 33.01607 | -117.14898 | 12751 ft | 392 kts | 20° |
| 2026-04-25 08:43 | 33.03897 | -117.13138 | 13685 ft | 402 kts | 42° |
| 2026-04-25 08:44 | 33.05785 | -117.09985 | 14524 ft | 527 kts | 63° |
| 2026-04-25 08:44 | 33.07137 | -117.05880 | 15273 ft | 532 kts | 76° |
| 2026-04-25 08:44 | 33.07795 | -117.01495 | 16038 ft | 544 kts | 83° |
| 2026-04-25 08:44 | 33.08229 | -116.97067 | 16780 ft | 546 kts | 83° |
| 2026-04-25 08:45 | 33.08968 | -116.92483 | 17577 ft | 602 kts | 78° |
| 2026-04-25 08:45 | 33.09746 | -116.87396 | 18364 ft | 627 kts | 81° |
| 2026-04-25 08:45 | 33.10498 | -116.82252 | 19074 ft | 629 kts | 79° |
| 2026-04-25 08:45 | 33.11297 | -116.77109 | 19769 ft | 630 kts | 81° |
| 2026-04-25 08:46 | 33.12043 | -116.71970 | 20491 ft | 628 kts | 80° |
| 2026-04-25 08:46 | 33.12824 | -116.66844 | 21211 ft | 627 kts | 80° |
| 2026-04-25 08:46 | 33.13633 | -116.61721 | 21954 ft | 626 kts | 76° |
| 2026-04-25 08:46 | 33.15220 | -116.56929 | 22765 ft | 624 kts | 60° |
| 2026-04-25 08:47 | 33.17789 | -116.52763 | 23551 ft | 619 kts | 44° |
| 2026-04-25 08:47 | 33.21056 | -116.49574 | 24269 ft | 613 kts | 31° |
| 2026-04-25 08:47 | 33.24674 | -116.46871 | 24952 ft | 612 kts | 27° |
| 2026-04-25 08:47 | 33.28351 | -116.44312 | 25668 ft | 609 kts | 26° |
| 2026-04-25 08:48 | 33.32023 | -116.41798 | 26400 ft | 608 kts | 26° |
| 2026-04-25 08:48 | 33.35698 | -116.39271 | 27144 ft | 609 kts | 26° |
| 2026-04-25 08:48 | 33.39336 | -116.36700 | 27920 ft | 608 kts | 29° |
| 2026-04-25 08:48 | 33.42768 | -116.33681 | 28731 ft | 612 kts | 35° |
| 2026-04-25 08:49 | 33.46139 | -116.30578 | 29560 ft | 608 kts | 31° |
| 2026-04-25 08:49 | 33.49596 | -116.27661 | 30311 ft | 609 kts | 32° |
| 2026-04-25 08:49 | 33.52983 | -116.24619 | 31024 ft | 611 kts | 31° |
| 2026-04-25 08:49 | 33.56430 | -116.21637 | 31769 ft | 611 kts | 31° |
| 2026-04-25 08:50 | 33.59863 | -116.18592 | 32547 ft | 616 kts | 33° |
| 2026-04-25 08:50 | 33.63118 | -116.15218 | 33345 ft | 622 kts | 38° |
| 2026-04-25 08:50 | 33.66175 | -116.11478 | 34132 ft | 631 kts | 46° |
| 2026-04-25 08:50 | 33.68851 | -116.07377 | 34859 ft | 634 kts | 50° |
| 2026-04-25 08:51 | 33.71570 | -116.03221 | 35614 ft | 632 kts | 45° |
| 2026-04-25 08:51 | 33.74449 | -115.99198 | 36390 ft | 634 kts | 47° |
| 2026-04-25 08:51 | 33.77221 | -115.95056 | 37197 ft | 636 kts | 46° |
| 2026-04-25 08:51 | 33.80065 | -115.90977 | 38034 ft | 635 kts | 45° |
| 2026-04-25 08:52 | 33.82871 | -115.86861 | 38803 ft | 636 kts | 46° |
| 2026-04-25 08:52 | 33.85672 | -115.82767 | 39503 ft | 630 kts | 45° |
| 2026-04-25 08:52 | 33.88470 | -115.78697 | 40198 ft | 628 kts | 46° |
| 2026-04-25 08:52 | 33.91197 | -115.74686 | 40575 ft | 628 kts | 46° |
| 2026-04-25 08:53 | 33.93993 | -115.70602 | 40728 ft | 628 kts | 46° |
| 2026-04-25 08:53 | 33.99521 | -115.62483 | 40797 ft | 625 kts | 46° |
| 2026-04-25 08:54 | 34.05027 | -115.54391 | 40793 ft | 624 kts | 46° |
| 2026-04-25 08:54 | 34.10527 | -115.46283 | 40785 ft | 624 kts | 46° |
| 2026-04-25 08:55 | 34.15985 | -115.38218 | 40766 ft | 623 kts | 46° |
| 2026-04-25 08:55 | 34.21462 | -115.30109 | 40768 ft | 623 kts | 46° |
| 2026-04-25 08:56 | 34.26950 | -115.21964 | 40760 ft | 623 kts | 46° |
| 2026-04-25 08:56 | 34.32416 | -115.13833 | 40750 ft | 623 kts | 46° |
| 2026-04-25 08:57 | 34.37846 | -115.05736 | 40742 ft | 623 kts | 46° |
| 2026-04-25 08:57 | 34.43343 | -114.97522 | 40744 ft | 624 kts | 46° |
| 2026-04-25 08:58 | 34.48767 | -114.89398 | 40739 ft | 624 kts | 46° |
| 2026-04-25 08:58 | 34.54220 | -114.81211 | 40743 ft | 623 kts | 46° |
| 2026-04-25 08:59 | 34.59666 | -114.73015 | 40756 ft | 624 kts | 46° |
| 2026-04-25 08:59 | 34.65109 | -114.64806 | 40786 ft | 624 kts | 47° |
| 2026-04-25 09:00 | 34.70560 | -114.56577 | 40786 ft | 622 kts | 45° |
| 2026-04-25 09:00 | 34.73598 | -114.53053 | 40827 ft | 605 kts | 28° |
| 2026-04-25 09:00 | 34.77207 | -114.50566 | 40858 ft | 592 kts | 16° |
| 2026-04-25 09:01 | 34.84831 | -114.46899 | 40793 ft | 586 kts | 11° |
| 2026-04-25 09:01 | 34.88683 | -114.45450 | 40780 ft | 574 kts | 5° |
| 2026-04-25 09:01 | 34.92571 | -114.44481 | 40766 ft | 568 kts | 0° |
| 2026-04-25 09:01 | 34.96500 | -114.43687 | 40089 ft | 574 kts | 359° |
| 2026-04-25 09:02 | 35.00437 | -114.42944 | 39401 ft | 571 kts | 359° |
| 2026-04-25 09:02 | 35.04351 | -114.42206 | 38725 ft | 567 kts | 358° |
| 2026-04-25 09:02 | 35.08252 | -114.41454 | 37976 ft | 565 kts | 359° |
| 2026-04-25 09:02 | 35.12138 | -114.40702 | 37187 ft | 565 kts | 359° |
| 2026-04-25 09:03 | 35.16028 | -114.39959 | 36393 ft | 567 kts | 359° |
| 2026-04-25 09:03 | 35.19917 | -114.39229 | 35643 ft | 573 kts | 359° |
| 2026-04-25 09:03 | 35.23899 | -114.38514 | 34889 ft | 582 kts | 359° |
| 2026-04-25 09:03 | 35.27935 | -114.37819 | 34149 ft | 588 kts | 359° |
| 2026-04-25 09:04 | 35.31976 | -114.37140 | 33374 ft | 591 kts | 359° |
| 2026-04-25 09:04 | 35.36061 | -114.36483 | 32562 ft | 590 kts | 359° |
| 2026-04-25 09:04 | 35.39899 | -114.35852 | 31837 ft | 528 kts | 359° |
| 2026-04-25 09:04 | 35.43380 | -114.35252 | 31109 ft | 508 kts | 359° |
| 2026-04-25 09:05 | 35.46902 | -114.34675 | 30371 ft | 511 kts | 359° |
| 2026-04-25 09:05 | 35.50459 | -114.34127 | 29648 ft | 524 kts | 359° |
| 2026-04-25 09:05 | 35.54085 | -114.33602 | 28808 ft | 521 kts | 359° |
| 2026-04-25 09:05 | 35.57700 | -114.33092 | 28003 ft | 525 kts | 359° |
| 2026-04-25 09:06 | 35.61330 | -114.32593 | 27214 ft | 525 kts | 359° |
| 2026-04-25 09:06 | 35.64963 | -114.32102 | 26464 ft | 526 kts | 359° |
| 2026-04-25 09:06 | 35.68625 | -114.31618 | 25720 ft | 529 kts | 359° |
| 2026-04-25 09:06 | 35.72269 | -114.31144 | 25007 ft | 528 kts | 359° |
| 2026-04-25 09:07 | 35.75947 | -114.30675 | 24309 ft | 530 kts | 359° |
| 2026-04-25 09:07 | 35.79609 | -114.30218 | 23629 ft | 530 kts | 359° |
| 2026-04-25 09:07 | 35.83272 | -114.29770 | 22910 ft | 531 kts | 359° |
| 2026-04-25 09:07 | 35.86970 | -114.29336 | 22112 ft | 535 kts | 359° |
| 2026-04-25 09:08 | 35.90681 | -114.28926 | 21341 ft | 537 kts | 359° |
| 2026-04-25 09:08 | 35.94427 | -114.28544 | 20582 ft | 539 kts | 359° |
| 2026-04-25 09:08 | 35.98186 | -114.28194 | 19847 ft | 543 kts | 359° |
| 2026-04-25 09:08 | 36.01952 | -114.27880 | 19131 ft | 544 kts | 359° |
| 2026-04-25 09:09 | 36.05690 | -114.27604 | 18442 ft | 548 kts | 359° |
| 2026-04-25 09:09 | 36.09547 | -114.27358 | 17714 ft | 550 kts | 359° |
| 2026-04-25 09:09 | 36.13332 | -114.27153 | 16946 ft | 551 kts | 359° |
| 2026-04-25 09:09 | 36.17175 | -114.26978 | 16177 ft | 552 kts | 359° |
| 2026-04-25 09:10 | 36.21018 | -114.26836 | 15427 ft | 555 kts | 359° |
| 2026-04-25 09:10 | 36.24890 | -114.26723 | 14687 ft | 557 kts | 359° |
| 2026-04-25 09:10 | 36.28763 | -114.26640 | 13982 ft | 558 kts | 359° |
| 2026-04-25 09:10 | 36.32665 | -114.26583 | 13253 ft | 560 kts | 359° |
| 2026-04-25 09:11 | 36.40491 | -114.26614 | 11726 ft | 560 kts | 351° |
| 2026-04-25 09:11 | 36.42771 | -114.29269 | 10065 ft | 427 kts | 286° |
| 2026-04-25 09:11 | 36.43552 | -114.32611 | 8574 ft | 383 kts | 277° |
| 2026-04-25 09:12 | 36.43652 | -114.35780 | 7278 ft | 364 kts | 264° |
| 2026-04-25 09:12 | 36.43431 | -114.38679 | 6883 ft | 310 kts | 262° |
| 2026-04-25 09:12 | 36.43230 | -114.41146 | 6754 ft | 263 kts | 262° |
| 2026-04-25 09:12 | 36.43066 | -114.43208 | 6655 ft | 229 kts | 262° |
| 2026-04-25 09:13 | 36.42899 | -114.45326 | 6693 ft | 259 kts | 262° |
| 2026-04-25 09:13 | 36.42673 | -114.47968 | 6660 ft | 351 kts | 262° |
| 2026-04-25 09:13 | 36.42412 | -114.50828 | 6060 ft | 324 kts | 262° |
| 2026-04-25 09:13 | 36.42159 | -114.53600 | 5800 ft | 324 kts | 262° |
| 2026-04-25 09:14 | 36.41907 | -114.56361 | 5635 ft | 321 kts | 262° |
| 2026-04-25 09:14 | 36.41656 | -114.59110 | 5462 ft | 318 kts | 262° |
| 2026-04-25 09:14 | 36.41406 | -114.61849 | 5258 ft | 319 kts | 262° |
| 2026-04-25 09:14 | 36.41152 | -114.64580 | 5072 ft | 319 kts | 262° |
| 2026-04-25 09:15 | 36.40880 | -114.67311 | 4909 ft | 318 kts | 261° |
| 2026-04-25 09:15 | 36.40601 | -114.70023 | 4911 ft | 316 kts | 261° |
| 2026-04-25 09:15 | 36.40412 | -114.71845 | 4897 ft | 320 kts | 261° |
| 2026-04-25 09:15 | 36.40036 | -114.75461 | 4869 ft | 319 kts | 261° |
| 2026-04-25 09:16 | 36.39740 | -114.78191 | 4842 ft | 318 kts | 261° |
| 2026-04-25 09:16 | 36.39541 | -114.79995 | 4736 ft | 317 kts | 261° |
| 2026-04-25 09:16 | 36.39241 | -114.82712 | 4524 ft | 317 kts | 261° |
| 2026-04-25 09:16 | 36.38859 | -114.85398 | 4448 ft | 317 kts | 253° |
| 2026-04-25 09:17 | 36.36253 | -114.89645 | 4299 ft | 315 kts | 222° |
| 2026-04-25 09:17 | 36.34610 | -114.91443 | 3913 ft | 314 kts | 222° |
| 2026-04-25 09:17 | 36.32969 | -114.93237 | 3868 ft | 314 kts | 222° |
| 2026-04-25 09:18 | 36.31331 | -114.95034 | 3841 ft | 314 kts | 222° |
| 2026-04-25 09:18 | 36.29716 | -114.96814 | 3824 ft | 317 kts | 222° |
| 2026-04-25 09:18 | 36.28087 | -114.98619 | 3813 ft | 313 kts | 222° |
| 2026-04-25 09:18 | 36.26454 | -115.00393 | 3784 ft | 312 kts | 222° |
| 2026-04-25 09:19 | 36.24816 | -115.02156 | 3768 ft | 313 kts | 221° |
| 2026-04-25 09:19 | 36.23097 | -115.02355 | 3704 ft | 277 kts | 126° |
| 2026-04-25 09:19 | 36.23526 | -115.00363 | 3547 ft | 272 kts | 42° |
| 2026-04-25 09:19 | 36.24753 | -114.99002 | 3427 ft | 180 kts | 39° |
| 2026-04-25 09:20 | 36.25783 | -114.98534 | 3294 ft | 177 kts | 340° |
| 2026-04-25 09:20 | 36.26247 | -114.99488 | 3040 ft | 132 kts | 249° |
| 2026-04-25 09:20 | 36.25866 | -115.00832 | 2615 ft | 170 kts | 248° |
| 2026-04-25 09:20 | 36.25333 | -115.01783 | 2225 ft | 129 kts | 223° |
| 2026-04-25 09:21 | 36.24442 | -115.02772 | 2048 ft | 259 kts | 221° |
| 2026-04-25 09:21 | 36.23506 | -115.01901 | 2945 ft | 246 kts | 76° |
| 2026-04-25 09:21 | 36.24420 | -115.00624 | 2883 ft | 219 kts | 41° |
| 2026-04-25 09:21 | 36.25472 | -114.99565 | 2868 ft | 149 kts | 15° |
| 2026-04-25 09:22 | 36.26210 | -115.00189 | 2796 ft | 156 kts | 261° |
| 2026-04-25 09:22 | 36.25729 | -115.01338 | 2256 ft | 153 kts | 225° |
| 2026-04-25 09:22 | 36.24980 | -115.02175 | 1932 ft | 137 kts | 221° |
| 2026-04-25 09:22 | 36.24334 | -115.02867 | 1882 ft | 94 kts | 221° |
| 2026-04-25 09:23 | 36.23908 | -115.03329 | 1879 ft | 71 kts | 222° |